createdAt,value
2022-08-25T00:00:27.212Z,22.99
2022-08-25T00:01:27.169Z,22.97
2022-08-25T00:02:27.212Z,22.96
2022-08-25T00:03:27.126Z,22.94
2022-08-25T00:04:27.121Z,22.94
2022-08-25T00:05:27.746Z,22.97
2022-08-25T00:06:27.127Z,22.94
2022-08-25T00:07:27.085Z,22.93
2022-08-25T00:08:27.076Z,22.91
2022-08-25T00:09:27.076Z,22.89
2022-08-25T00:10:27.070Z,22.86
2022-08-25T00:11:27.037Z,22.85
2022-08-25T00:12:27.066Z,22.84
2022-08-25T00:13:27.047Z,22.81
2022-08-25T00:14:27.014Z,22.78
2022-08-25T00:15:27.057Z,22.76
2022-08-25T00:16:26.998Z,22.75
2022-08-25T00:17:27.008Z,22.74
2022-08-25T00:18:26.994Z,22.74
2022-08-25T00:19:27.004Z,22.72
2022-08-25T00:20:26.950Z,22.72
2022-08-25T00:21:26.935Z,22.70
2022-08-25T00:22:26.925Z,22.69
2022-08-25T00:23:26.927Z,22.69
2022-08-25T00:24:26.934Z,22.67
2022-08-25T00:25:26.902Z,22.66
2022-08-25T00:26:26.878Z,22.64
2022-08-25T00:27:26.871Z,22.63
2022-08-25T00:28:26.870Z,22.61
2022-08-25T00:29:26.848Z,22.63
2022-08-25T00:30:26.867Z,22.59
2022-08-25T00:31:37.829Z,22.57
2022-08-25T00:32:26.834Z,22.56
2022-08-25T00:33:26.806Z,22.54
2022-08-25T00:34:26.796Z,22.54
2022-08-25T00:35:26.794Z,22.52
2022-08-25T00:36:26.803Z,22.52
2022-08-25T00:37:26.758Z,22.52
2022-08-25T00:38:26.760Z,22.52
2022-08-25T00:39:26.742Z,22.49
2022-08-25T00:40:26.800Z,22.48
2022-08-25T00:41:26.753Z,22.45
2022-08-25T00:42:26.705Z,22.41
2022-08-25T00:43:26.706Z,22.41
2022-08-25T00:44:26.697Z,22.38
2022-08-25T00:45:26.692Z,22.38
2022-08-25T00:46:26.794Z,22.38
2022-08-25T00:47:26.685Z,22.38
2022-08-25T00:48:26.644Z,22.36
2022-08-25T00:49:26.642Z,22.35
2022-08-25T00:50:26.751Z,22.35
2022-08-25T00:51:26.602Z,22.33
2022-08-25T00:52:26.588Z,22.33
2022-08-25T00:53:26.643Z,22.31
2022-08-25T00:54:26.584Z,22.27
2022-08-25T00:55:26.573Z,22.24
2022-08-25T00:56:26.544Z,22.24
2022-08-25T00:57:34.124Z,22.21
2022-08-25T00:58:26.550Z,22.21
2022-08-25T00:59:26.537Z,22.21
2022-08-25T01:00:26.519Z,22.20
2022-08-25T01:01:26.588Z,22.19
2022-08-25T01:02:26.504Z,22.17
2022-08-25T01:03:31.521Z,22.15
2022-08-25T01:04:26.462Z,22.15
2022-08-25T01:05:26.457Z,22.12
2022-08-25T01:06:26.484Z,22.12
2022-08-25T01:07:26.431Z,22.12
2022-08-25T01:08:26.414Z,22.12
2022-08-25T01:09:26.487Z,22.11
2022-08-25T01:10:26.424Z,22.11
2022-08-25T01:11:26.388Z,22.08
2022-08-25T01:12:26.387Z,22.06
2022-08-25T01:13:26.375Z,22.05
2022-08-25T01:14:26.453Z,22.06
2022-08-25T01:15:26.360Z,22.06
2022-08-25T01:16:26.324Z,22.05
2022-08-25T01:17:26.327Z,22.02
2022-08-25T01:18:26.304Z,22.01
2022-08-25T01:19:26.308Z,22.01
2022-08-25T01:20:29.202Z,22.02
2022-08-25T01:21:26.279Z,22.02
2022-08-25T01:22:26.263Z,22.04
2022-08-25T01:23:26.256Z,22.02
2022-08-25T01:24:26.239Z,22.02
2022-08-25T01:25:26.228Z,22.02
2022-08-25T01:26:30.365Z,21.98
2022-08-25T01:27:26.210Z,21.96
2022-08-25T01:28:26.216Z,21.93
2022-08-25T01:29:26.185Z,21.93
2022-08-25T01:30:26.185Z,21.94
2022-08-25T01:31:26.198Z,21.93
2022-08-25T01:32:26.210Z,21.91
2022-08-25T01:33:26.144Z,21.90
2022-08-25T01:34:26.134Z,21.89
2022-08-25T01:35:26.136Z,21.85
2022-08-25T01:36:26.130Z,21.85
2022-08-25T01:37:26.103Z,21.86
2022-08-25T01:38:26.117Z,21.83
2022-08-25T01:39:26.077Z,21.82
2022-08-25T01:40:26.163Z,21.81
2022-08-25T01:41:26.063Z,21.79
2022-08-25T01:42:26.044Z,21.79
2022-08-25T01:43:26.067Z,21.81
2022-08-25T01:44:26.036Z,21.77
2022-08-25T01:45:26.075Z,21.77
2022-08-25T01:46:26.100Z,21.74
2022-08-25T01:47:25.997Z,21.75
2022-08-25T01:48:26.003Z,21.74
2022-08-25T01:49:26.013Z,21.74
2022-08-25T01:50:26.004Z,21.71
2022-08-25T01:51:25.952Z,21.70
2022-08-25T01:52:25.947Z,21.68
2022-08-25T01:53:25.942Z,21.66
2022-08-25T01:54:25.919Z,21.66
2022-08-25T01:55:25.977Z,21.64
2022-08-25T01:56:25.899Z,21.61
2022-08-25T01:57:25.896Z,21.59
2022-08-25T01:58:25.885Z,21.61
2022-08-25T01:59:25.855Z,21.56
2022-08-25T02:00:25.858Z,21.59
2022-08-25T02:01:25.926Z,21.59
2022-08-25T02:02:26.264Z,21.58
2022-08-25T02:03:25.828Z,21.58
2022-08-25T02:04:25.812Z,21.56
2022-08-25T02:05:25.793Z,21.55
2022-08-25T02:06:28.777Z,21.53
2022-08-25T02:07:25.786Z,21.52
2022-08-25T02:08:25.801Z,21.49
2022-08-25T02:09:25.745Z,21.49
2022-08-25T02:10:25.750Z,21.48
2022-08-25T02:11:25.730Z,21.49
2022-08-25T02:12:25.751Z,21.45
2022-08-25T02:13:26.899Z,21.43
2022-08-25T02:14:25.715Z,21.43
2022-08-25T02:15:25.691Z,21.43
2022-08-25T02:16:25.715Z,21.40
2022-08-25T02:17:25.669Z,21.40
2022-08-25T02:18:25.668Z,21.40
2022-08-25T02:19:25.641Z,21.38
2022-08-25T02:20:25.630Z,21.38
2022-08-25T02:21:25.610Z,21.37
2022-08-25T02:22:25.618Z,21.38
2022-08-25T02:23:25.612Z,21.37
2022-08-25T02:24:25.582Z,21.36
2022-08-25T02:25:25.567Z,21.36
2022-08-25T02:26:25.566Z,21.34
2022-08-25T02:27:25.551Z,21.33
2022-08-25T02:28:25.597Z,21.31
2022-08-25T02:29:25.521Z,21.31
2022-08-25T02:30:25.573Z,21.30
2022-08-25T02:31:25.521Z,21.30
2022-08-25T02:32:25.504Z,21.27
2022-08-25T02:33:25.485Z,21.24
2022-08-25T02:34:25.514Z,21.21
2022-08-25T02:35:25.472Z,21.21
2022-08-25T02:36:25.466Z,21.18
2022-08-25T02:37:25.447Z,21.18
2022-08-25T02:38:25.418Z,21.13
2022-08-25T02:39:25.485Z,21.11
2022-08-25T02:40:25.444Z,21.08
2022-08-25T02:41:31.087Z,21.06
2022-08-25T02:42:25.409Z,21.05
2022-08-25T02:43:25.373Z,21.00
2022-08-25T02:44:25.386Z,20.98
2022-08-25T02:45:25.356Z,20.97
2022-08-25T02:46:25.489Z,20.93
2022-08-25T02:47:26.853Z,20.91
2022-08-25T02:48:25.306Z,20.88
2022-08-25T02:49:25.294Z,20.87
2022-08-25T02:50:25.301Z,20.85
2022-08-25T02:51:25.300Z,20.83
2022-08-25T02:52:25.260Z,20.82
2022-08-25T02:53:25.259Z,20.82
2022-08-25T02:54:25.237Z,20.82
2022-08-25T02:55:25.263Z,20.81
2022-08-25T02:56:25.221Z,20.81
2022-08-25T02:57:25.200Z,20.78
2022-08-25T02:58:25.200Z,20.76
2022-08-25T02:59:25.186Z,20.75
2022-08-25T03:00:25.178Z,20.75
2022-08-25T03:01:28.852Z,20.75
2022-08-25T03:02:25.148Z,20.76
2022-08-25T03:03:25.136Z,20.75
2022-08-25T03:04:25.224Z,20.73
2022-08-25T03:05:25.116Z,20.73
2022-08-25T03:06:25.164Z,20.72
2022-08-25T03:07:25.087Z,20.72
2022-08-25T03:08:25.079Z,20.71
2022-08-25T03:09:25.075Z,20.71
2022-08-25T03:10:25.105Z,20.71
2022-08-25T03:11:25.042Z,20.71
2022-08-25T03:12:25.064Z,20.72
2022-08-25T03:13:25.020Z,20.72
2022-08-25T03:14:25.010Z,20.71
2022-08-25T03:15:24.998Z,20.71
2022-08-25T03:16:27.641Z,20.68
2022-08-25T03:17:24.994Z,20.66
2022-08-25T03:18:24.996Z,20.66
2022-08-25T03:19:24.950Z,20.64
2022-08-25T03:20:24.949Z,20.64
2022-08-25T03:21:24.936Z,20.61
2022-08-25T03:22:24.979Z,20.60
2022-08-25T03:23:24.904Z,20.61
2022-08-25T03:24:24.902Z,20.60
2022-08-25T03:25:24.879Z,20.60
2022-08-25T03:26:24.881Z,20.61
2022-08-25T03:27:24.874Z,20.58
2022-08-25T03:28:29.835Z,20.60
2022-08-25T03:29:24.851Z,20.60
2022-08-25T03:30:24.837Z,20.57
2022-08-25T03:31:24.866Z,20.57
2022-08-25T03:32:24.809Z,20.56
2022-08-25T03:33:24.825Z,20.57
2022-08-25T03:34:24.780Z,20.57
2022-08-25T03:35:24.778Z,20.56
2022-08-25T03:36:24.782Z,20.57
2022-08-25T03:37:24.763Z,20.56
2022-08-25T03:38:24.760Z,20.56
2022-08-25T03:39:24.731Z,20.56
2022-08-25T03:40:24.771Z,20.56
2022-08-25T03:41:27.790Z,20.56
2022-08-25T03:42:24.706Z,20.56
2022-08-25T03:43:24.737Z,20.57
2022-08-25T03:44:24.689Z,20.57
2022-08-25T03:45:24.692Z,20.58
2022-08-25T03:46:24.647Z,20.57
2022-08-25T03:47:24.647Z,20.58
2022-08-25T03:48:24.632Z,20.58
2022-08-25T03:49:24.664Z,20.60
2022-08-25T03:50:24.601Z,20.60
2022-08-25T03:51:24.590Z,20.58
2022-08-25T03:52:24.600Z,20.58
2022-08-25T03:53:24.570Z,20.60
2022-08-25T03:54:24.572Z,20.60
2022-08-25T03:55:24.551Z,20.58
2022-08-25T03:56:24.550Z,20.60
2022-08-25T03:57:24.546Z,20.60
2022-08-25T03:58:24.525Z,20.60
2022-08-25T03:59:24.502Z,20.61
2022-08-25T04:00:24.493Z,20.60
2022-08-25T04:01:24.549Z,20.58
2022-08-25T04:02:24.540Z,20.58
2022-08-25T04:03:24.471Z,20.58
2022-08-25T04:04:24.461Z,20.60
2022-08-25T04:05:24.448Z,20.60
2022-08-25T04:06:24.467Z,20.61
2022-08-25T04:07:24.433Z,20.58
2022-08-25T04:08:24.439Z,20.56
2022-08-25T04:09:24.405Z,20.56
2022-08-25T04:10:24.388Z,20.54
2022-08-25T04:11:24.405Z,20.54
2022-08-25T04:12:24.407Z,20.51
2022-08-25T04:13:24.398Z,20.51
2022-08-25T04:14:24.358Z,20.48
2022-08-25T04:15:24.331Z,20.48
2022-08-25T04:16:24.430Z,20.46
2022-08-25T04:17:24.336Z,20.46
2022-08-25T04:18:24.298Z,20.46
2022-08-25T04:19:24.328Z,20.46
2022-08-25T04:20:24.283Z,20.46
2022-08-25T04:21:24.278Z,20.44
2022-08-25T04:22:24.276Z,20.42
2022-08-25T04:23:24.263Z,20.42
2022-08-25T04:24:24.238Z,20.41
2022-08-25T04:25:24.225Z,20.42
2022-08-25T04:26:24.212Z,20.41
2022-08-25T04:27:24.224Z,20.41
2022-08-25T04:28:24.190Z,20.40
2022-08-25T04:29:24.187Z,20.38
2022-08-25T04:30:24.170Z,20.38
2022-08-25T04:31:24.220Z,20.38
2022-08-25T04:32:24.170Z,20.38
2022-08-25T04:33:24.151Z,20.38
2022-08-25T04:34:29.555Z,20.35
2022-08-25T04:35:24.133Z,20.34
2022-08-25T04:36:24.107Z,20.34
2022-08-25T04:37:24.118Z,20.33
2022-08-25T04:38:24.079Z,20.31
2022-08-25T04:39:24.075Z,20.31
2022-08-25T04:40:29.160Z,20.31
2022-08-25T04:41:24.060Z,20.30
2022-08-25T04:42:24.062Z,20.31
2022-08-25T04:43:24.042Z,20.31
2022-08-25T04:44:24.014Z,20.31
2022-08-25T04:45:24.096Z,20.31
2022-08-25T04:46:24.065Z,20.33
2022-08-25T04:47:24.014Z,20.33
2022-08-25T04:48:23.988Z,20.31
2022-08-25T04:49:23.974Z,20.31
2022-08-25T04:50:23.951Z,20.30
2022-08-25T04:51:23.972Z,20.31
2022-08-25T04:52:23.960Z,20.31
2022-08-25T04:53:23.918Z,20.34
2022-08-25T04:54:23.945Z,20.33
2022-08-25T04:55:23.907Z,20.33
2022-08-25T04:56:23.910Z,20.31
2022-08-25T04:57:23.905Z,20.31
2022-08-25T04:58:23.871Z,20.33
2022-08-25T04:59:23.862Z,20.31
2022-08-25T05:00:23.848Z,20.31
2022-08-25T05:01:23.924Z,20.33
2022-08-25T05:02:23.860Z,20.31
2022-08-25T05:03:23.809Z,20.34
2022-08-25T05:04:28.280Z,20.35
2022-08-25T05:05:23.806Z,20.37
2022-08-25T05:06:23.788Z,20.37
2022-08-25T05:07:23.795Z,20.38
2022-08-25T05:08:23.765Z,20.40
2022-08-25T05:09:23.774Z,20.40
2022-08-25T05:10:23.739Z,20.40
2022-08-25T05:11:23.937Z,20.44
2022-08-25T05:12:23.734Z,20.44
2022-08-25T05:13:23.724Z,20.46
2022-08-25T05:14:26.368Z,20.48
2022-08-25T05:15:23.698Z,20.48
2022-08-25T05:16:23.738Z,20.50
2022-08-25T05:17:23.685Z,20.53
2022-08-25T05:18:23.667Z,20.54
2022-08-25T05:19:23.653Z,20.54
2022-08-25T05:20:23.633Z,20.56
2022-08-25T05:21:23.625Z,20.58
2022-08-25T05:22:23.623Z,20.58
2022-08-25T05:23:23.625Z,20.60
2022-08-25T05:24:23.582Z,20.61
2022-08-25T05:25:23.575Z,20.64
2022-08-25T05:26:23.580Z,20.66
2022-08-25T05:27:23.572Z,20.69
2022-08-25T05:28:23.551Z,20.69
2022-08-25T05:29:23.558Z,20.71
2022-08-25T05:30:23.538Z,20.72
2022-08-25T05:31:23.571Z,20.73
2022-08-25T05:32:23.534Z,20.76
2022-08-25T05:33:23.494Z,20.76
2022-08-25T05:34:23.474Z,20.79
2022-08-25T05:35:23.459Z,20.81
2022-08-25T05:36:23.464Z,20.83
2022-08-25T05:37:23.462Z,20.87
2022-08-25T05:38:23.437Z,20.85
2022-08-25T05:39:26.791Z,20.88
2022-08-25T05:40:23.464Z,20.91
2022-08-25T05:41:23.396Z,20.94
2022-08-25T05:42:23.415Z,20.96
2022-08-25T05:43:23.383Z,20.97
2022-08-25T05:44:23.372Z,20.98
2022-08-25T05:45:23.397Z,20.98
2022-08-25T05:46:23.372Z,21.01
2022-08-25T05:47:23.377Z,21.03
2022-08-25T05:48:23.330Z,21.05
2022-08-25T05:49:23.316Z,21.06
2022-08-25T05:50:23.327Z,21.08
2022-08-25T05:51:23.291Z,21.11
2022-08-25T05:52:23.317Z,21.15
2022-08-25T05:53:23.269Z,21.18
2022-08-25T05:54:23.263Z,21.22
2022-08-25T05:55:23.278Z,21.27
2022-08-25T05:56:23.235Z,21.30
2022-08-25T05:57:23.245Z,21.33
2022-08-25T05:58:23.223Z,21.36
2022-08-25T05:59:23.201Z,21.37
2022-08-25T06:00:23.215Z,21.40
2022-08-25T06:01:23.260Z,21.45
2022-08-25T06:02:23.194Z,21.51
2022-08-25T06:03:23.195Z,21.55
2022-08-25T06:04:23.161Z,21.58
2022-08-25T06:05:23.130Z,21.61
2022-08-25T06:06:23.123Z,21.64
2022-08-25T06:07:23.146Z,21.73
2022-08-25T06:08:23.102Z,21.75
2022-08-25T06:09:23.091Z,21.81
2022-08-25T06:10:23.104Z,21.85
2022-08-25T06:11:23.070Z,21.86
2022-08-25T06:12:23.082Z,21.90
2022-08-25T06:13:28.855Z,21.94
2022-08-25T06:14:23.054Z,21.96
2022-08-25T06:15:23.019Z,22.02
2022-08-25T06:16:23.066Z,22.06
2022-08-25T06:17:23.023Z,22.11
2022-08-25T06:18:22.994Z,22.15
2022-08-25T06:19:22.995Z,22.20
2022-08-25T06:20:25.799Z,22.27
2022-08-25T06:21:22.964Z,22.31
2022-08-25T06:22:22.997Z,22.39
2022-08-25T06:23:22.933Z,22.44
2022-08-25T06:24:22.924Z,22.48
2022-08-25T06:25:22.911Z,22.52
2022-08-25T06:26:22.895Z,22.59
2022-08-25T06:27:22.905Z,22.61
2022-08-25T06:28:22.878Z,22.63
2022-08-25T06:29:22.871Z,22.70
2022-08-25T06:30:24.500Z,22.74
2022-08-25T06:31:22.899Z,22.78
2022-08-25T06:32:22.847Z,22.82
2022-08-25T06:33:22.826Z,22.88
2022-08-25T06:34:23.803Z,22.91
2022-08-25T06:35:22.830Z,22.99
2022-08-25T06:36:22.785Z,23.01
2022-08-25T06:37:25.154Z,23.06
2022-08-25T06:38:22.764Z,23.12
2022-08-25T06:39:22.757Z,23.16
2022-08-25T06:40:22.778Z,23.21
2022-08-25T06:41:22.770Z,23.25
2022-08-25T06:42:22.749Z,23.32
2022-08-25T06:43:22.718Z,23.35
2022-08-25T06:44:22.692Z,23.41
2022-08-25T06:45:22.689Z,23.45
2022-08-25T06:46:22.753Z,23.50
2022-08-25T06:47:22.761Z,23.52
2022-08-25T06:48:22.650Z,23.60
2022-08-25T06:49:22.642Z,23.64
2022-08-25T06:50:22.629Z,23.69
2022-08-25T06:51:22.616Z,23.74
2022-08-25T06:52:22.621Z,23.78
2022-08-25T06:53:22.604Z,23.82
2022-08-25T06:54:22.598Z,23.89
2022-08-25T06:55:22.590Z,23.97
2022-08-25T06:56:22.565Z,24.02
2022-08-25T06:57:22.570Z,24.04
2022-08-25T06:58:22.540Z,24.08
2022-08-25T06:59:22.573Z,24.14
2022-08-25T07:00:22.553Z,24.19
2022-08-25T07:01:22.647Z,24.24
2022-08-25T07:02:22.710Z,24.27
2022-08-25T07:04:22.480Z,24.31
2022-08-25T07:05:33.679Z,24.33
2022-08-25T07:06:22.455Z,24.39
2022-08-25T07:07:22.476Z,24.44
2022-08-25T07:08:22.435Z,24.49
2022-08-25T07:09:22.425Z,24.56
2022-08-25T07:10:22.415Z,24.59
2022-08-25T07:11:22.397Z,24.61
2022-08-25T07:12:22.415Z,24.68
2022-08-25T07:13:22.382Z,24.74
2022-08-25T07:14:22.371Z,24.74
2022-08-25T07:15:22.356Z,24.79
2022-08-25T07:16:22.559Z,24.83
2022-08-25T07:17:22.362Z,24.87
2022-08-25T07:18:22.334Z,24.93
2022-08-25T07:19:22.308Z,24.98
2022-08-25T07:21:25.006Z,25.11
2022-08-25T07:22:22.308Z,25.19
2022-08-25T07:23:22.267Z,25.24
2022-08-25T07:24:22.275Z,25.34
2022-08-25T07:25:22.248Z,25.34
2022-08-25T07:26:36.918Z,25.38
2022-08-25T07:27:22.268Z,25.38
2022-08-25T07:28:22.228Z,25.38
2022-08-25T07:29:32.051Z,25.38
2022-08-25T07:30:22.227Z,25.39
2022-08-25T07:31:22.221Z,25.45
2022-08-25T07:32:22.204Z,25.44
2022-08-25T07:33:22.161Z,25.49
2022-08-25T07:34:22.144Z,25.57
2022-08-25T07:35:24.142Z,25.60
2022-08-25T07:36:22.124Z,25.56
2022-08-25T07:37:50.112Z,25.51
2022-08-25T07:38:22.107Z,25.59
2022-08-25T07:39:22.284Z,25.63
2022-08-25T07:40:22.231Z,25.69
2022-08-25T07:41:22.085Z,25.76
2022-08-25T07:42:22.060Z,25.74
2022-08-25T07:43:22.080Z,25.81
2022-08-25T07:44:22.039Z,25.90
2022-08-25T07:45:22.026Z,25.98
2022-08-25T07:46:22.106Z,26.06
2022-08-25T07:47:23.098Z,26.16
2022-08-25T07:48:22.010Z,26.24
2022-08-25T07:49:23.479Z,26.31
2022-08-25T07:50:22.049Z,26.38
2022-08-25T07:51:21.990Z,26.39
2022-08-25T07:52:21.946Z,26.44
2022-08-25T07:53:21.986Z,26.54
2022-08-25T07:54:21.951Z,26.59
2022-08-25T07:55:21.936Z,26.65
2022-08-25T07:56:21.908Z,26.71
2022-08-25T07:57:21.907Z,26.73
2022-08-25T07:58:21.941Z,26.73
2022-08-25T07:59:21.883Z,26.83
2022-08-25T08:00:21.916Z,26.88
2022-08-25T08:01:21.926Z,26.88
2022-08-25T08:02:21.915Z,26.88
2022-08-25T08:03:42.162Z,26.88
2022-08-25T08:04:21.848Z,26.94
2022-08-25T08:05:23.989Z,26.97
2022-08-25T08:06:21.827Z,26.98
2022-08-25T08:07:23.017Z,27.01
2022-08-25T08:08:21.815Z,27.05
2022-08-25T08:09:21.801Z,27.11
2022-08-25T08:11:21.804Z,27.16
2022-08-25T08:12:21.744Z,27.20
2022-08-25T08:13:21.750Z,27.21
2022-08-25T08:14:21.751Z,27.18
2022-08-25T08:15:21.737Z,27.13
2022-08-25T08:16:21.799Z,27.21
2022-08-25T08:17:21.756Z,27.18
2022-08-25T08:18:21.707Z,27.23
2022-08-25T08:19:23.011Z,27.35
2022-08-25T08:20:23.472Z,27.48
2022-08-25T08:21:21.699Z,27.50
2022-08-25T08:22:21.628Z,27.58
2022-08-25T08:23:21.628Z,27.65
2022-08-25T08:24:40.824Z,27.76
2022-08-25T08:25:27.425Z,27.77
2022-08-25T08:26:22.462Z,27.78
2022-08-25T08:27:21.581Z,27.86
2022-08-25T08:28:21.568Z,27.88
2022-08-25T08:29:21.559Z,27.90
2022-08-25T08:30:21.571Z,28.02
2022-08-25T08:31:21.669Z,28.13
2022-08-25T08:32:25.270Z,28.14
2022-08-25T08:33:21.517Z,28.18
2022-08-25T08:34:24.794Z,28.24
2022-08-25T08:35:21.524Z,28.28
2022-08-25T08:36:21.476Z,28.28
2022-08-25T08:37:21.991Z,28.24
2022-08-25T08:38:26.877Z,28.21
2022-08-25T08:39:21.456Z,28.18
2022-08-25T08:40:21.530Z,28.20
2022-08-25T08:41:23.275Z,28.25
2022-08-25T08:42:21.405Z,28.33
2022-08-25T08:43:21.429Z,28.30
2022-08-25T08:44:21.395Z,28.33
2022-08-25T08:45:21.413Z,28.40
2022-08-25T08:46:21.388Z,28.48
2022-08-25T08:47:21.353Z,28.58
2022-08-25T08:48:21.342Z,28.64
2022-08-25T08:49:21.391Z,28.70
2022-08-25T08:50:24.925Z,28.69
2022-08-25T08:51:23.200Z,28.80
2022-08-25T08:52:21.307Z,28.80
2022-08-25T08:53:21.635Z,28.80
2022-08-25T08:54:21.273Z,28.74
2022-08-25T08:55:21.269Z,28.73
2022-08-25T08:56:21.312Z,28.74
2022-08-25T08:57:21.254Z,28.80
2022-08-25T08:58:21.240Z,28.85
2022-08-25T08:59:21.241Z,28.87
2022-08-25T09:00:21.225Z,28.89
2022-08-25T09:01:21.271Z,28.88
2022-08-25T09:02:38.539Z,28.95
2022-08-25T09:03:21.227Z,29.07
2022-08-25T09:04:21.181Z,29.17
2022-08-25T09:05:21.166Z,29.20
2022-08-25T09:06:21.169Z,29.20
2022-08-25T09:07:21.152Z,29.25
2022-08-25T09:08:21.137Z,29.21
2022-08-25T09:09:21.132Z,29.07
2022-08-25T09:10:21.109Z,29.11
2022-08-25T09:11:21.122Z,29.12
2022-08-25T09:12:21.134Z,29.18
2022-08-25T09:13:21.075Z,29.26
2022-08-25T09:14:21.086Z,29.29
2022-08-25T09:15:21.071Z,29.36
2022-08-25T09:16:31.922Z,29.41
2022-08-25T09:17:21.054Z,29.45
2022-08-25T09:18:21.043Z,29.45
2022-08-25T09:19:21.408Z,29.51
2022-08-25T09:20:21.090Z,29.54
2022-08-25T09:21:21.028Z,29.63
2022-08-25T09:22:35.037Z,29.74
2022-08-25T09:23:20.977Z,29.86
2022-08-25T09:24:20.963Z,29.85
2022-08-25T09:25:29.554Z,29.84
2022-08-25T09:26:20.935Z,29.88
2022-08-25T09:27:21.185Z,29.94
2022-08-25T09:28:20.937Z,29.99
2022-08-25T09:29:20.910Z,29.94
2022-08-25T09:30:20.896Z,29.99
2022-08-25T09:31:20.975Z,30.00
2022-08-25T09:32:24.155Z,30.03
2022-08-25T09:33:21.128Z,30.04
2022-08-25T09:34:20.850Z,30.07
2022-08-25T09:35:20.842Z,30.01
2022-08-25T09:36:20.830Z,30.08
2022-08-25T09:37:20.827Z,30.21
2022-08-25T09:38:20.824Z,30.29
2022-08-25T09:39:20.797Z,30.34
2022-08-25T09:40:20.832Z,30.44
2022-08-25T09:41:20.781Z,30.54
2022-08-25T09:42:23.914Z,30.59
2022-08-25T09:43:20.751Z,30.70
2022-08-25T09:44:20.724Z,30.75
2022-08-25T09:45:20.725Z,30.72
2022-08-25T09:46:20.917Z,30.73
2022-08-25T09:47:20.747Z,30.56
2022-08-25T09:48:20.683Z,30.53
2022-08-25T09:49:20.680Z,30.53
2022-08-25T09:50:20.666Z,30.51
2022-08-25T09:51:20.669Z,30.57
2022-08-25T09:52:20.677Z,30.64
2022-08-25T09:53:21.727Z,30.64
2022-08-25T09:54:20.615Z,30.72
2022-08-25T09:55:20.608Z,30.78
2022-08-25T09:56:20.606Z,30.73
2022-08-25T09:57:20.623Z,30.76
2022-08-25T09:58:20.596Z,30.82
2022-08-25T09:59:20.564Z,30.81
2022-08-25T10:00:20.574Z,30.81
2022-08-25T10:01:22.325Z,30.78
2022-08-25T10:02:20.531Z,30.82
2022-08-25T10:03:22.840Z,30.86
2022-08-25T10:04:20.914Z,31.03
2022-08-25T10:05:20.612Z,31.07
2022-08-25T10:06:20.546Z,31.07
2022-08-25T10:07:20.489Z,31.16
2022-08-25T10:08:24.722Z,31.12
2022-08-25T10:09:20.480Z,31.23
2022-08-25T10:10:20.446Z,31.31
2022-08-25T10:11:20.433Z,31.40
2022-08-25T10:12:21.044Z,31.49
2022-08-25T10:13:22.821Z,31.50
2022-08-25T10:14:20.414Z,31.47
2022-08-25T10:15:29.167Z,31.42
2022-08-25T10:16:24.460Z,31.53
2022-08-25T10:17:20.374Z,31.62
2022-08-25T10:18:20.364Z,31.50
2022-08-25T10:19:20.372Z,31.53
2022-08-25T10:20:20.341Z,31.53
2022-08-25T10:21:20.333Z,31.47
2022-08-25T10:22:20.366Z,31.52
2022-08-25T10:23:20.318Z,31.59
2022-08-25T10:24:20.327Z,31.65
2022-08-25T10:25:20.296Z,31.74
2022-08-25T10:26:20.312Z,31.78
2022-08-25T10:27:20.262Z,31.76
2022-08-25T10:28:20.258Z,31.84
2022-08-25T10:29:20.263Z,31.79
2022-08-25T10:30:20.238Z,31.79
2022-08-25T10:31:20.315Z,31.90
2022-08-25T10:32:20.223Z,31.79
2022-08-25T10:33:20.200Z,31.78
2022-08-25T10:34:20.230Z,31.78
2022-08-25T10:35:20.251Z,31.67
2022-08-25T10:36:20.448Z,31.59
2022-08-25T10:37:20.157Z,31.37
2022-08-25T10:38:21.841Z,31.42
2022-08-25T10:39:34.109Z,31.59
2022-08-25T10:40:20.193Z,31.69
2022-08-25T10:41:20.120Z,31.78
2022-08-25T10:42:20.108Z,31.79
2022-08-25T10:43:20.111Z,31.87
2022-08-25T10:44:20.093Z,31.88
2022-08-25T10:45:21.706Z,31.97
2022-08-25T10:46:20.130Z,32.10
2022-08-25T10:47:20.056Z,32.19
2022-08-25T10:48:20.044Z,32.27
2022-08-25T10:49:20.027Z,32.34
2022-08-25T10:50:20.018Z,32.40
2022-08-25T10:51:24.882Z,32.49
2022-08-25T10:52:20.069Z,32.54
2022-08-25T10:53:19.984Z,32.66
2022-08-25T10:54:20.217Z,32.71
2022-08-25T10:55:19.965Z,32.53
2022-08-25T10:56:19.978Z,32.46
2022-08-25T10:57:19.958Z,32.34
2022-08-25T10:58:19.952Z,32.31
2022-08-25T10:59:19.965Z,32.36
2022-08-25T11:00:19.938Z,32.35
2022-08-25T11:01:19.957Z,32.36
2022-08-25T11:02:19.953Z,32.44
2022-08-25T11:03:19.893Z,32.35
2022-08-25T11:04:19.871Z,32.40
2022-08-25T11:05:24.498Z,32.54
2022-08-25T11:06:19.903Z,32.56
2022-08-25T11:07:19.832Z,32.62
2022-08-25T11:08:19.841Z,32.49
2022-08-25T11:09:19.813Z,32.28
2022-08-25T11:10:19.826Z,32.22
2022-08-25T11:11:19.795Z,32.35
2022-08-25T11:12:19.803Z,32.21
2022-08-25T11:13:19.773Z,32.34
2022-08-25T11:14:19.760Z,32.34
2022-08-25T11:15:19.771Z,32.36
2022-08-25T11:16:19.963Z,32.46
2022-08-25T11:17:19.789Z,32.56
2022-08-25T11:18:19.787Z,32.68
2022-08-25T11:19:19.716Z,32.65
2022-08-25T11:20:26.796Z,32.68
2022-08-25T11:21:19.705Z,32.81
2022-08-25T11:22:19.734Z,32.96
2022-08-25T11:23:19.719Z,33.14
2022-08-25T11:24:19.666Z,33.21
2022-08-25T11:25:19.683Z,33.31
2022-08-25T11:26:19.637Z,33.49
2022-08-25T11:27:19.629Z,33.44
2022-08-25T11:28:19.661Z,33.22
2022-08-25T11:29:19.606Z,33.03
2022-08-25T11:30:19.608Z,32.91
2022-08-25T11:31:19.637Z,32.73
2022-08-25T11:32:19.622Z,32.81
2022-08-25T11:33:19.721Z,32.78
2022-08-25T11:34:19.751Z,32.65
2022-08-25T11:35:19.541Z,32.65
2022-08-25T11:36:19.555Z,32.80
2022-08-25T11:37:19.550Z,33.03
2022-08-25T11:38:19.562Z,33.21
2022-08-25T11:39:19.497Z,33.37
2022-08-25T11:40:19.562Z,33.33
2022-08-25T11:41:19.542Z,33.24
2022-08-25T11:42:19.498Z,33.26
2022-08-25T11:43:19.475Z,33.41
2022-08-25T11:44:19.467Z,33.45
2022-08-25T11:45:19.435Z,33.57
2022-08-25T11:46:19.507Z,33.60
2022-08-25T11:47:21.475Z,33.68
2022-08-25T11:48:19.459Z,33.56
2022-08-25T11:49:19.389Z,33.38
2022-08-25T11:50:19.396Z,33.37
2022-08-25T11:51:19.433Z,33.45
2022-08-25T11:52:19.385Z,33.59
2022-08-25T11:53:19.438Z,33.70
2022-08-25T11:54:19.368Z,33.82
2022-08-25T11:55:22.971Z,33.93
2022-08-25T11:56:19.328Z,33.86
2022-08-25T11:57:19.306Z,33.93
2022-08-25T11:58:19.350Z,33.87
2022-08-25T11:59:19.308Z,33.78
2022-08-25T12:00:19.293Z,33.66
2022-08-25T12:01:19.262Z,33.70
2022-08-25T12:02:19.268Z,33.84
2022-08-25T12:03:19.241Z,33.99
2022-08-25T12:04:19.313Z,33.89
2022-08-25T12:05:19.411Z,33.53
2022-08-25T12:06:19.223Z,33.24
2022-08-25T12:07:19.217Z,32.90
2022-08-25T12:08:19.218Z,32.90
2022-08-25T12:09:19.184Z,32.99
2022-08-25T12:10:19.267Z,33.14
2022-08-25T12:11:19.191Z,33.29
2022-08-25T12:12:19.189Z,33.29
2022-08-25T12:13:19.154Z,33.38
2022-08-25T12:14:19.157Z,33.47
2022-08-25T12:15:19.186Z,33.65
2022-08-25T12:16:19.193Z,33.75
2022-08-25T12:17:19.102Z,33.94
2022-08-25T12:18:19.127Z,33.92
2022-08-25T12:19:19.085Z,34.03
2022-08-25T12:20:19.088Z,34.01
2022-08-25T12:21:19.075Z,34.11
2022-08-25T12:22:19.086Z,34.28
2022-08-25T12:23:19.097Z,34.24
2022-08-25T12:24:19.035Z,34.16
2022-08-25T12:25:19.011Z,34.06
2022-08-25T12:26:19.049Z,34.03
2022-08-25T12:27:19.004Z,34.05
2022-08-25T12:28:19.474Z,33.93
2022-08-25T12:29:18.984Z,33.90
2022-08-25T12:30:20.820Z,33.92
2022-08-25T12:31:19.096Z,33.97
2022-08-25T12:32:18.936Z,34.05
2022-08-25T12:33:18.938Z,33.97
2022-08-25T12:34:18.930Z,34.01
2022-08-25T12:35:18.918Z,33.87
2022-08-25T12:36:18.923Z,33.79
2022-08-25T12:37:18.892Z,33.62
2022-08-25T12:38:18.877Z,33.47
2022-08-25T12:39:18.908Z,33.53
2022-08-25T12:40:18.887Z,33.62
2022-08-25T12:41:18.888Z,33.60
2022-08-25T12:42:19.926Z,33.57
2022-08-25T12:43:19.777Z,33.50
2022-08-25T12:44:18.815Z,33.53
2022-08-25T12:45:18.848Z,33.55
2022-08-25T12:46:18.903Z,33.77
2022-08-25T12:47:18.811Z,33.77
2022-08-25T12:48:18.821Z,33.89
2022-08-25T12:49:18.778Z,33.99
2022-08-25T12:50:18.749Z,34.05
2022-08-25T12:51:18.754Z,34.05
2022-08-25T12:52:18.758Z,34.14
2022-08-25T12:53:18.728Z,34.18
2022-08-25T12:54:22.321Z,34.28
2022-08-25T12:55:18.703Z,34.48